Terminal Aerodrome Forecast
Issued by NWS Sterling, VA

Current Version | Previous Version | Text Only | Print | Product List | Glossary Off
Versions: 1 2 3 4 5 6 7 8 9 10 11 12 13

000
FTUS41 KLWX 220500
TAFMRB
TAF
KMRB 220539Z 2206/2306 18005KT P6SM SCT150 BKN200
     FM221400 26005KT P6SM -SHRA OVC050
     FM221600 26007KT 5SM -SHRA BR SCT030 OVC040CB
     FM221800 24007KT 5SM -SHRA BR SCT020 OVC030
     FM222000 27011G18KT P6SM SCT020 BKN040
     FM222300 31014G24KT P6SM SCT150=

USA.gov is the U.S. government's official web portal to all federal, state and local government web resources and services.